sensor_id;sensor_type;location;lat;lon;timestamp;P1;durP1;ratioP1;P2;durP2;ratioP2
47844;SDS011;33605;48.822;8.796;2023-11-21T00:00:12;1.20;;;1.10;;
47844;SDS011;33605;48.822;8.796;2023-11-21T00:02:43;1.40;;;1.30;;
47844;SDS011;33605;48.822;8.796;2023-11-21T00:05:10;1.50;;;1.10;;
47844;SDS011;33605;48.822;8.796;2023-11-21T00:07:39;4.13;;;1.80;;
47844;SDS011;33605;48.822;8.796;2023-11-21T00:10:05;2.30;;;1.77;;
47844;SDS011;33605;48.822;8.796;2023-11-21T00:12:33;5.33;;;1.67;;
47844;SDS011;33605;48.822;8.796;2023-11-21T00:14:59;3.30;;;1.77;;
47844;SDS011;33605;48.822;8.796;2023-11-21T00:17:26;1.90;;;1.60;;
47844;SDS011;33605;48.822;8.796;2023-11-21T00:19:52;2.07;;;1.40;;
47844;SDS011;33605;48.822;8.796;2023-11-21T00:22:18;2.83;;;1.50;;
47844;SDS011;33605;48.822;8.796;2023-11-21T00:24:44;2.57;;;1.67;;
47844;SDS011;33605;48.822;8.796;2023-11-21T00:27:10;2.80;;;1.43;;
47844;SDS011;33605;48.822;8.796;2023-11-21T00:29:36;1.67;;;1.50;;
47844;SDS011;33605;48.822;8.796;2023-11-21T00:32:05;2.10;;;1.40;;
47844;SDS011;33605;48.822;8.796;2023-11-21T00:34:31;2.53;;;1.60;;
47844;SDS011;33605;48.822;8.796;2023-11-21T00:36:58;2.00;;;1.80;;
47844;SDS011;33605;48.822;8.796;2023-11-21T00:39:24;2.40;;;1.57;;
47844;SDS011;33605;48.822;8.796;2023-11-21T00:41:51;1.77;;;1.40;;
47844;SDS011;33605;48.822;8.796;2023-11-21T00:44:17;2.63;;;1.40;;
47844;SDS011;33605;48.822;8.796;2023-11-21T00:46:43;2.10;;;1.30;;
47844;SDS011;33605;48.822;8.796;2023-11-21T00:49:09;1.10;;;1.00;;
47844;SDS011;33605;48.822;8.796;2023-11-21T00:51:34;1.70;;;1.20;;
47844;SDS011;33605;48.822;8.796;2023-11-21T00:54:01;4.50;;;1.10;;
47844;SDS011;33605;48.822;8.796;2023-11-21T00:56:26;1.90;;;1.40;;
47844;SDS011;33605;48.822;8.796;2023-11-21T00:58:52;1.50;;;1.40;;
47844;SDS011;33605;48.822;8.796;2023-11-21T01:01:18;3.20;;;1.40;;
47844;SDS011;33605;48.822;8.796;2023-11-21T01:03:48;1.77;;;1.20;;
47844;SDS011;33605;48.822;8.796;2023-11-21T01:06:14;1.83;;;1.20;;
47844;SDS011;33605;48.822;8.796;2023-11-21T01:08:40;1.70;;;1.37;;
47844;SDS011;33605;48.822;8.796;2023-11-21T01:11:05;2.57;;;1.70;;
47844;SDS011;33605;48.822;8.796;2023-11-21T01:13:33;3.03;;;1.30;;
47844;SDS011;33605;48.822;8.796;2023-11-21T01:16:01;1.37;;;1.03;;
47844;SDS011;33605;48.822;8.796;2023-11-21T01:18:27;1.43;;;1.30;;
47844;SDS011;33605;48.822;8.796;2023-11-21T01:20:54;2.23;;;1.20;;
47844;SDS011;33605;48.822;8.796;2023-11-21T01:23:19;1.30;;;1.20;;
47844;SDS011;33605;48.822;8.796;2023-11-21T01:25:48;1.50;;;1.40;;
47844;SDS011;33605;48.822;8.796;2023-11-21T01:28:14;1.30;;;1.20;;
47844;SDS011;33605;48.822;8.796;2023-11-21T01:30:39;1.30;;;1.20;;
47844;SDS011;33605;48.822;8.796;2023-11-21T01:33:05;2.17;;;1.27;;
47844;SDS011;33605;48.822;8.796;2023-11-21T01:35:30;2.43;;;1.40;;
47844;SDS011;33605;48.822;8.796;2023-11-21T01:37:59;1.10;;;1.00;;
47844;SDS011;33605;48.822;8.796;2023-11-21T01:40:25;1.50;;;1.40;;
47844;SDS011;33605;48.822;8.796;2023-11-21T01:42:52;1.83;;;1.70;;
47844;SDS011;33605;48.822;8.796;2023-11-21T01:45:18;1.53;;;1.40;;
47844;SDS011;33605;48.822;8.796;2023-11-21T01:47:44;1.80;;;1.70;;
47844;SDS011;33605;48.822;8.796;2023-11-21T01:50:13;2.37;;;1.47;;
47844;SDS011;33605;48.822;8.796;2023-11-21T01:52:41;1.77;;;1.37;;
47844;SDS011;33605;48.822;8.796;2023-11-21T01:55:11;1.30;;;1.20;;
47844;SDS011;33605;48.822;8.796;2023-11-21T01:57:43;1.30;;;1.20;;
47844;SDS011;33605;48.822;8.796;2023-11-21T02:00:08;2.10;;;1.50;;
47844;SDS011;33605;48.822;8.796;2023-11-21T02:02:46;2.20;;;1.40;;
47844;SDS011;33605;48.822;8.796;2023-11-21T02:05:14;2.63;;;1.70;;
47844;SDS011;33605;48.822;8.796;2023-11-21T02:07:42;1.43;;;1.33;;
47844;SDS011;33605;48.822;8.796;2023-11-21T02:10:08;2.47;;;1.50;;
47844;SDS011;33605;48.822;8.796;2023-11-21T02:12:34;2.40;;;1.33;;
47844;SDS011;33605;48.822;8.796;2023-11-21T02:15:03;1.60;;;1.50;;
47844;SDS011;33605;48.822;8.796;2023-11-21T02:17:34;2.97;;;1.47;;
47844;SDS011;33605;48.822;8.796;2023-11-21T02:20:01;2.03;;;1.80;;
47844;SDS011;33605;48.822;8.796;2023-11-21T02:22:30;4.13;;;2.87;;
47844;SDS011;33605;48.822;8.796;2023-11-21T02:24:59;10.27;;;4.90;;
47844;SDS011;33605;48.822;8.796;2023-11-21T02:27:24;9.10;;;4.27;;
47844;SDS011;33605;48.822;8.796;2023-11-21T02:29:52;7.40;;;4.37;;
47844;SDS011;33605;48.822;8.796;2023-11-21T02:32:17;3.30;;;2.17;;
47844;SDS011;33605;48.822;8.796;2023-11-21T02:34:44;8.87;;;5.20;;
47844;SDS011;33605;48.822;8.796;2023-11-21T02:37:10;5.07;;;3.10;;
47844;SDS011;33605;48.822;8.796;2023-11-21T02:39:35;5.87;;;3.17;;
47844;SDS011;33605;48.822;8.796;2023-11-21T02:42:01;6.60;;;3.70;;
47844;SDS011;33605;48.822;8.796;2023-11-21T02:44:28;4.20;;;2.87;;
47844;SDS011;33605;48.822;8.796;2023-11-21T02:46:54;8.03;;;2.37;;
47844;SDS011;33605;48.822;8.796;2023-11-21T02:49:19;2.00;;;1.70;;
47844;SDS011;33605;48.822;8.796;2023-11-21T02:51:45;29.17;;;12.43;;
47844;SDS011;33605;48.822;8.796;2023-11-21T02:54:10;74.63;;;28.87;;
47844;SDS011;33605;48.822;8.796;2023-11-21T02:56:37;24.40;;;11.43;;
47844;SDS011;33605;48.822;8.796;2023-11-21T02:59:05;27.80;;;12.33;;
47844;SDS011;33605;48.822;8.796;2023-11-21T03:01:31;13.23;;;7.40;;
47844;SDS011;33605;48.822;8.796;2023-11-21T03:03:56;6.33;;;3.30;;
47844;SDS011;33605;48.822;8.796;2023-11-21T03:06:22;4.40;;;2.63;;
47844;SDS011;33605;48.822;8.796;2023-11-21T03:08:48;2.33;;;1.50;;
47844;SDS011;33605;48.822;8.796;2023-11-21T03:11:13;1.33;;;1.10;;
47844;SDS011;33605;48.822;8.796;2023-11-21T03:13:40;1.90;;;1.23;;
47844;SDS011;33605;48.822;8.796;2023-11-21T03:16:09;2.40;;;1.50;;
47844;SDS011;33605;48.822;8.796;2023-11-21T03:18:36;1.77;;;1.30;;
47844;SDS011;33605;48.822;8.796;2023-11-21T03:21:02;1.40;;;1.30;;
47844;SDS011;33605;48.822;8.796;2023-11-21T03:23:33;2.53;;;1.70;;
47844;SDS011;33605;48.822;8.796;2023-11-21T03:25:59;1.40;;;1.30;;
47844;SDS011;33605;48.822;8.796;2023-11-21T03:28:25;2.20;;;1.30;;
47844;SDS011;33605;48.822;8.796;2023-11-21T03:30:52;1.67;;;1.30;;
47844;SDS011;33605;48.822;8.796;2023-11-21T03:33:18;5.37;;;2.27;;
47844;SDS011;33605;48.822;8.796;2023-11-21T03:35:44;1.60;;;1.50;;
47844;SDS011;33605;48.822;8.796;2023-11-21T03:38:09;1.73;;;1.20;;
47844;SDS011;33605;48.822;8.796;2023-11-21T03:40:35;1.23;;;1.13;;
47844;SDS011;33605;48.822;8.796;2023-11-21T03:43:01;2.70;;;1.80;;
47844;SDS011;33605;48.822;8.796;2023-11-21T03:45:27;1.30;;;1.20;;
47844;SDS011;33605;48.822;8.796;2023-11-21T03:47:52;1.67;;;1.30;;
47844;SDS011;33605;48.822;8.796;2023-11-21T03:50:20;1.20;;;1.10;;
47844;SDS011;33605;48.822;8.796;2023-11-21T03:52:49;1.40;;;1.30;;
47844;SDS011;33605;48.822;8.796;2023-11-21T03:55:15;2.07;;;1.77;;
47844;SDS011;33605;48.822;8.796;2023-11-21T03:57:40;1.80;;;1.53;;
47844;SDS011;33605;48.822;8.796;2023-11-21T04:00:06;1.37;;;1.27;;
47844;SDS011;33605;48.822;8.796;2023-11-21T04:02:33;1.43;;;1.33;;
47844;SDS011;33605;48.822;8.796;2023-11-21T04:04:59;1.60;;;1.50;;
47844;SDS011;33605;48.822;8.796;2023-11-21T04:07:25;1.47;;;1.37;;
47844;SDS011;33605;48.822;8.796;2023-11-21T04:09:51;1.30;;;1.20;;
47844;SDS011;33605;48.822;8.796;2023-11-21T04:12:17;3.83;;;1.80;;
47844;SDS011;33605;48.822;8.796;2023-11-21T04:14:42;1.90;;;1.10;;
47844;SDS011;33605;48.822;8.796;2023-11-21T04:17:08;1.40;;;1.30;;
47844;SDS011;33605;48.822;8.796;2023-11-21T04:19:34;1.70;;;1.60;;
47844;SDS011;33605;48.822;8.796;2023-11-21T04:22:00;1.40;;;1.10;;
47844;SDS011;33605;48.822;8.796;2023-11-21T04:24:25;1.27;;;1.13;;
47844;SDS011;33605;48.822;8.796;2023-11-21T04:26:51;1.40;;;1.30;;
47844;SDS011;33605;48.822;8.796;2023-11-21T04:29:16;2.33;;;2.10;;
47844;SDS011;33605;48.822;8.796;2023-11-21T04:31:42;1.57;;;1.47;;
47844;SDS011;33605;48.822;8.796;2023-11-21T04:34:08;1.83;;;1.40;;
47844;SDS011;33605;48.822;8.796;2023-11-21T04:36:33;1.70;;;1.60;;
47844;SDS011;33605;48.822;8.796;2023-11-21T04:39:00;2.80;;;1.70;;
47844;SDS011;33605;48.822;8.796;2023-11-21T04:41:25;1.60;;;1.50;;
47844;SDS011;33605;48.822;8.796;2023-11-21T04:43:51;1.30;;;1.20;;
47844;SDS011;33605;48.822;8.796;2023-11-21T04:46:17;1.50;;;1.40;;
47844;SDS011;33605;48.822;8.796;2023-11-21T04:48:43;1.53;;;1.37;;
47844;SDS011;33605;48.822;8.796;2023-11-21T04:51:09;1.50;;;1.40;;
47844;SDS011;33605;48.822;8.796;2023-11-21T04:53:36;2.40;;;1.93;;
47844;SDS011;33605;48.822;8.796;2023-11-21T04:56:02;2.30;;;2.10;;
47844;SDS011;33605;48.822;8.796;2023-11-21T04:58:28;3.23;;;2.03;;
47844;SDS011;33605;48.822;8.796;2023-11-21T05:00:54;2.00;;;1.90;;
47844;SDS011;33605;48.822;8.796;2023-11-21T05:03:20;2.00;;;1.77;;
47844;SDS011;33605;48.822;8.796;2023-11-21T05:05:45;5.40;;;1.93;;
47844;SDS011;33605;48.822;8.796;2023-11-21T05:08:11;17.93;;;2.50;;
47844;SDS011;33605;48.822;8.796;2023-11-21T05:10:38;9.60;;;1.97;;
47844;SDS011;33605;48.822;8.796;2023-11-21T05:13:04;1.43;;;1.33;;
47844;SDS011;33605;48.822;8.796;2023-11-21T05:15:34;28.80;;;3.30;;
47844;SDS011;33605;48.822;8.796;2023-11-21T05:18:00;3.87;;;1.40;;
47844;SDS011;33605;48.822;8.796;2023-11-21T05:20:25;3.47;;;1.40;;
47844;SDS011;33605;48.822;8.796;2023-11-21T05:22:51;4.00;;;1.37;;
47844;SDS011;33605;48.822;8.796;2023-11-21T05:25:17;1.30;;;1.20;;
47844;SDS011;33605;48.822;8.796;2023-11-21T05:27:46;1.40;;;1.30;;
47844;SDS011;33605;48.822;8.796;2023-11-21T05:30:15;2.13;;;1.20;;
47844;SDS011;33605;48.822;8.796;2023-11-21T05:32:41;2.43;;;1.20;;
47844;SDS011;33605;48.822;8.796;2023-11-21T05:35:11;1.40;;;1.30;;
47844;SDS011;33605;48.822;8.796;2023-11-21T05:37:40;1.80;;;1.47;;
47844;SDS011;33605;48.822;8.796;2023-11-21T05:40:07;1.33;;;1.23;;
47844;SDS011;33605;48.822;8.796;2023-11-21T05:42:34;2.33;;;1.87;;
47844;SDS011;33605;48.822;8.796;2023-11-21T05:45:00;1.67;;;1.40;;
47844;SDS011;33605;48.822;8.796;2023-11-21T05:47:39;1.60;;;1.50;;
47844;SDS011;33605;48.822;8.796;2023-11-21T05:50:10;2.33;;;1.63;;
47844;SDS011;33605;48.822;8.796;2023-11-21T05:52:37;2.73;;;1.70;;
47844;SDS011;33605;48.822;8.796;2023-11-21T05:55:07;2.17;;;1.60;;
47844;SDS011;33605;48.822;8.796;2023-11-21T05:57:33;2.70;;;1.87;;
47844;SDS011;33605;48.822;8.796;2023-11-21T06:00:02;5.17;;;2.67;;
47844;SDS011;33605;48.822;8.796;2023-11-21T06:02:35;3.27;;;2.33;;
47844;SDS011;33605;48.822;8.796;2023-11-21T06:05:01;2.30;;;1.83;;
47844;SDS011;33605;48.822;8.796;2023-11-21T06:07:29;1.73;;;1.60;;
47844;SDS011;33605;48.822;8.796;2023-11-21T06:09:54;1.57;;;1.47;;
47844;SDS011;33605;48.822;8.796;2023-11-21T06:12:20;2.60;;;1.40;;
47844;SDS011;33605;48.822;8.796;2023-11-21T06:14:45;1.70;;;1.60;;
47844;SDS011;33605;48.822;8.796;2023-11-21T06:17:13;1.63;;;1.47;;
47844;SDS011;33605;48.822;8.796;2023-11-21T06:19:38;1.80;;;1.70;;
47844;SDS011;33605;48.822;8.796;2023-11-21T06:22:05;1.57;;;1.47;;
47844;SDS011;33605;48.822;8.796;2023-11-21T06:24:31;1.93;;;1.80;;
47844;SDS011;33605;48.822;8.796;2023-11-21T06:26:57;1.87;;;1.50;;
47844;SDS011;33605;48.822;8.796;2023-11-21T06:29:23;2.00;;;1.80;;
47844;SDS011;33605;48.822;8.796;2023-11-21T06:31:49;2.67;;;2.43;;
47844;SDS011;33605;48.822;8.796;2023-11-21T06:34:14;5.63;;;3.13;;
47844;SDS011;33605;48.822;8.796;2023-11-21T06:36:40;3.17;;;2.90;;
47844;SDS011;33605;48.822;8.796;2023-11-21T06:39:06;3.43;;;2.93;;
47844;SDS011;33605;48.822;8.796;2023-11-21T06:41:33;3.97;;;3.53;;
47844;SDS011;33605;48.822;8.796;2023-11-21T06:43:59;3.53;;;2.80;;
47844;SDS011;33605;48.822;8.796;2023-11-21T06:46:24;3.50;;;3.20;;
47844;SDS011;33605;48.822;8.796;2023-11-21T06:48:50;2.50;;;2.30;;
47844;SDS011;33605;48.822;8.796;2023-11-21T06:51:16;2.53;;;2.33;;
47844;SDS011;33605;48.822;8.796;2023-11-21T06:53:42;2.40;;;2.03;;
47844;SDS011;33605;48.822;8.796;2023-11-21T06:56:15;2.00;;;1.90;;
47844;SDS011;33605;48.822;8.796;2023-11-21T06:58:45;2.30;;;2.10;;
47844;SDS011;33605;48.822;8.796;2023-11-21T07:01:13;2.43;;;2.23;;
47844;SDS011;33605;48.822;8.796;2023-11-21T07:03:40;2.73;;;2.33;;
47844;SDS011;33605;48.822;8.796;2023-11-21T07:06:06;3.90;;;2.93;;
47844;SDS011;33605;48.822;8.796;2023-11-21T07:08:33;1.97;;;1.77;;
47844;SDS011;33605;48.822;8.796;2023-11-21T07:10:58;3.60;;;2.30;;
47844;SDS011;33605;48.822;8.796;2023-11-21T07:13:24;3.53;;;2.80;;
47844;SDS011;33605;48.822;8.796;2023-11-21T07:15:49;3.43;;;2.93;;
47844;SDS011;33605;48.822;8.796;2023-11-21T07:18:15;8.10;;;2.83;;
47844;SDS011;33605;48.822;8.796;2023-11-21T07:20:40;5.80;;;3.77;;
47844;SDS011;33605;48.822;8.796;2023-11-21T07:23:07;6.40;;;3.50;;
47844;SDS011;33605;48.822;8.796;2023-11-21T07:25:32;4.67;;;3.13;;
47844;SDS011;33605;48.822;8.796;2023-11-21T07:28:01;5.27;;;3.10;;
47844;SDS011;33605;48.822;8.796;2023-11-21T07:30:26;7.20;;;2.93;;
47844;SDS011;33605;48.822;8.796;2023-11-21T07:32:52;3.30;;;2.80;;
47844;SDS011;33605;48.822;8.796;2023-11-21T07:35:18;6.17;;;3.30;;
47844;SDS011;33605;48.822;8.796;2023-11-21T07:37:44;3.50;;;3.20;;
47844;SDS011;33605;48.822;8.796;2023-11-21T07:40:10;3.33;;;2.70;;
47844;SDS011;33605;48.822;8.796;2023-11-21T07:42:36;3.73;;;2.80;;
47844;SDS011;33605;48.822;8.796;2023-11-21T07:45:02;4.00;;;2.67;;
47844;SDS011;33605;48.822;8.796;2023-11-21T07:47:29;3.70;;;2.23;;
47844;SDS011;33605;48.822;8.796;2023-11-21T07:49:55;3.03;;;2.60;;
47844;SDS011;33605;48.822;8.796;2023-11-21T07:52:21;5.80;;;2.50;;
47844;SDS011;33605;48.822;8.796;2023-11-21T07:54:47;7.30;;;2.50;;
47844;SDS011;33605;48.822;8.796;2023-11-21T07:57:13;3.47;;;3.03;;
47844;SDS011;33605;48.822;8.796;2023-11-21T07:59:42;2.80;;;2.50;;
47844;SDS011;33605;48.822;8.796;2023-11-21T08:02:07;4.03;;;2.50;;
47844;SDS011;33605;48.822;8.796;2023-11-21T08:04:33;2.50;;;2.20;;
47844;SDS011;33605;48.822;8.796;2023-11-21T08:07:00;3.23;;;2.13;;
47844;SDS011;33605;48.822;8.796;2023-11-21T08:09:26;4.20;;;2.57;;
47844;SDS011;33605;48.822;8.796;2023-11-21T08:11:52;2.10;;;2.00;;
47844;SDS011;33605;48.822;8.796;2023-11-21T08:14:18;3.63;;;2.53;;
47844;SDS011;33605;48.822;8.796;2023-11-21T08:16:45;2.57;;;2.37;;
47844;SDS011;33605;48.822;8.796;2023-11-21T08:19:10;2.50;;;2.30;;
47844;SDS011;33605;48.822;8.796;2023-11-21T08:21:36;2.53;;;2.13;;
47844;SDS011;33605;48.822;8.796;2023-11-21T08:24:08;2.60;;;2.33;;
47844;SDS011;33605;48.822;8.796;2023-11-21T08:26:36;2.70;;;2.50;;
47844;SDS011;33605;48.822;8.796;2023-11-21T08:29:02;1.90;;;1.77;;
47844;SDS011;33605;48.822;8.796;2023-11-21T08:31:28;2.60;;;2.40;;
47844;SDS011;33605;48.822;8.796;2023-11-21T08:33:54;2.30;;;2.10;;
47844;SDS011;33605;48.822;8.796;2023-11-21T08:36:21;2.40;;;2.20;;
47844;SDS011;33605;48.822;8.796;2023-11-21T08:38:49;2.73;;;1.70;;
47844;SDS011;33605;48.822;8.796;2023-11-21T08:41:17;2.20;;;2.00;;
47844;SDS011;33605;48.822;8.796;2023-11-21T08:43:47;3.33;;;2.63;;
47844;SDS011;33605;48.822;8.796;2023-11-21T08:46:13;4.70;;;3.23;;
47844;SDS011;33605;48.822;8.796;2023-11-21T08:48:40;5.10;;;4.00;;
47844;SDS011;33605;48.822;8.796;2023-11-21T08:51:06;6.20;;;5.03;;
47844;SDS011;33605;48.822;8.796;2023-11-21T08:53:34;12.10;;;5.70;;
47844;SDS011;33605;48.822;8.796;2023-11-21T08:56:00;7.20;;;5.60;;
47844;SDS011;33605;48.822;8.796;2023-11-21T08:58:26;7.53;;;5.10;;
47844;SDS011;33605;48.822;8.796;2023-11-21T09:00:52;6.63;;;4.30;;
47844;SDS011;33605;48.822;8.796;2023-11-21T09:03:18;2.93;;;2.70;;
47844;SDS011;33605;48.822;8.796;2023-11-21T09:05:44;2.17;;;2.00;;
47844;SDS011;33605;48.822;8.796;2023-11-21T09:08:10;2.60;;;2.03;;
47844;SDS011;33605;48.822;8.796;2023-11-21T09:10:36;3.07;;;1.60;;
47844;SDS011;33605;48.822;8.796;2023-11-21T09:13:04;1.77;;;1.67;;
47844;SDS011;33605;48.822;8.796;2023-11-21T09:15:30;1.40;;;1.30;;
47844;SDS011;33605;48.822;8.796;2023-11-21T09:17:56;2.87;;;1.30;;
47844;SDS011;33605;48.822;8.796;2023-11-21T09:20:22;1.60;;;1.50;;
47844;SDS011;33605;48.822;8.796;2023-11-21T09:22:48;1.57;;;1.33;;
47844;SDS011;33605;48.822;8.796;2023-11-21T09:25:15;1.50;;;1.40;;
47844;SDS011;33605;48.822;8.796;2023-11-21T09:27:41;1.30;;;1.20;;
47844;SDS011;33605;48.822;8.796;2023-11-21T09:30:07;1.40;;;1.30;;
47844;SDS011;33605;48.822;8.796;2023-11-21T09:32:39;1.37;;;1.27;;
47844;SDS011;33605;48.822;8.796;2023-11-21T09:35:05;1.40;;;1.30;;
47844;SDS011;33605;48.822;8.796;2023-11-21T09:37:33;1.10;;;1.00;;
47844;SDS011;33605;48.822;8.796;2023-11-21T09:40:01;1.53;;;1.43;;
47844;SDS011;33605;48.822;8.796;2023-11-21T09:42:38;1.70;;;1.60;;
47844;SDS011;33605;48.822;8.796;2023-11-21T09:45:18;2.17;;;1.80;;
47844;SDS011;33605;48.822;8.796;2023-11-21T09:47:47;1.90;;;1.80;;
47844;SDS011;33605;48.822;8.796;2023-11-21T09:50:14;1.83;;;1.73;;
47844;SDS011;33605;48.822;8.796;2023-11-21T09:52:54;1.60;;;1.50;;
47844;SDS011;33605;48.822;8.796;2023-11-21T09:55:22;1.67;;;1.57;;
47844;SDS011;33605;48.822;8.796;2023-11-21T09:57:50;1.73;;;1.43;;
47844;SDS011;33605;48.822;8.796;2023-11-21T10:00:16;1.60;;;1.50;;
47844;SDS011;33605;48.822;8.796;2023-11-21T10:02:45;1.43;;;1.33;;
47844;SDS011;33605;48.822;8.796;2023-11-21T10:05:14;1.50;;;1.40;;
47844;SDS011;33605;48.822;8.796;2023-11-21T10:07:42;1.40;;;1.30;;
47844;SDS011;33605;48.822;8.796;2023-11-21T10:10:09;1.60;;;1.50;;
47844;SDS011;33605;48.822;8.796;2023-11-21T10:12:36;2.70;;;2.50;;
47844;SDS011;33605;48.822;8.796;2023-11-21T10:15:03;2.20;;;2.10;;
47844;SDS011;33605;48.822;8.796;2023-11-21T10:17:35;1.40;;;1.30;;
47844;SDS011;33605;48.822;8.796;2023-11-21T10:20:08;2.47;;;2.27;;
47844;SDS011;33605;48.822;8.796;2023-11-21T10:22:37;2.40;;;2.20;;
47844;SDS011;33605;48.822;8.796;2023-11-21T10:25:06;1.57;;;1.47;;
47844;SDS011;33605;48.822;8.796;2023-11-21T10:27:33;1.50;;;1.40;;
47844;SDS011;33605;48.822;8.796;2023-11-21T10:30:00;1.70;;;1.60;;
47844;SDS011;33605;48.822;8.796;2023-11-21T10:32:29;2.03;;;1.70;;
47844;SDS011;33605;48.822;8.796;2023-11-21T10:34:58;1.93;;;1.70;;
47844;SDS011;33605;48.822;8.796;2023-11-21T10:37:31;1.77;;;1.50;;
47844;SDS011;33605;48.822;8.796;2023-11-21T10:39:58;2.27;;;2.10;;
47844;SDS011;33605;48.822;8.796;2023-11-21T10:42:24;3.10;;;1.90;;
47844;SDS011;33605;48.822;8.796;2023-11-21T10:44:52;4.50;;;2.93;;
47844;SDS011;33605;48.822;8.796;2023-11-21T10:47:18;2.87;;;2.57;;
47844;SDS011;33605;48.822;8.796;2023-11-21T10:49:48;3.73;;;3.20;;
47844;SDS011;33605;48.822;8.796;2023-11-21T10:52:14;4.90;;;3.60;;
47844;SDS011;33605;48.822;8.796;2023-11-21T10:54:43;3.50;;;2.97;;
47844;SDS011;33605;48.822;8.796;2023-11-21T10:57:09;3.30;;;2.63;;
47844;SDS011;33605;48.822;8.796;2023-11-21T10:59:40;2.80;;;2.60;;
47844;SDS011;33605;48.822;8.796;2023-11-21T11:02:11;2.90;;;2.60;;
47844;SDS011;33605;48.822;8.796;2023-11-21T11:04:40;2.90;;;2.60;;
47844;SDS011;33605;48.822;8.796;2023-11-21T11:07:07;3.00;;;2.57;;
47844;SDS011;33605;48.822;8.796;2023-11-21T11:09:34;2.93;;;2.67;;
47844;SDS011;33605;48.822;8.796;2023-11-21T11:12:04;3.00;;;2.70;;
47844;SDS011;33605;48.822;8.796;2023-11-21T11:14:31;5.37;;;2.80;;
47844;SDS011;33605;48.822;8.796;2023-11-21T11:16:57;3.83;;;3.47;;
47844;SDS011;33605;48.822;8.796;2023-11-21T11:19:25;9.70;;;8.40;;
47844;SDS011;33605;48.822;8.796;2023-11-21T11:22:03;6.00;;;4.47;;
47844;SDS011;33605;48.822;8.796;2023-11-21T11:27:09;4.30;;;4.00;;
47844;SDS011;33605;48.822;8.796;2023-11-21T11:29:42;3.80;;;3.50;;
47844;SDS011;33605;48.822;8.796;2023-11-21T11:35:33;4.40;;;4.00;;
47844;SDS011;33605;48.822;8.796;2023-11-21T11:37:41;9.10;;;6.97;;
47844;SDS011;33605;48.822;8.796;2023-11-21T11:40:08;8.60;;;7.40;;
47844;SDS011;33605;48.822;8.796;2023-11-21T11:42:36;6.80;;;5.00;;
47844;SDS011;33605;48.822;8.796;2023-11-21T11:45:17;5.07;;;4.57;;
47844;SDS011;33605;48.822;8.796;2023-11-21T11:47:44;6.00;;;5.50;;
47844;SDS011;33605;48.822;8.796;2023-11-21T11:50:13;5.63;;;5.13;;
47844;SDS011;33605;48.822;8.796;2023-11-21T11:55:16;4.90;;;4.40;;
47844;SDS011;33605;48.822;8.796;2023-11-21T11:57:46;3.57;;;3.27;;
47844;SDS011;33605;48.822;8.796;2023-11-21T12:02:42;2.87;;;2.67;;
47844;SDS011;33605;48.822;8.796;2023-11-21T12:05:13;4.10;;;3.77;;
47844;SDS011;33605;48.822;8.796;2023-11-21T12:07:43;3.27;;;2.97;;
47844;SDS011;33605;48.822;8.796;2023-11-21T12:10:11;3.00;;;2.80;;
47844;SDS011;33605;48.822;8.796;2023-11-21T12:12:37;3.20;;;2.93;;
47844;SDS011;33605;48.822;8.796;2023-11-21T12:15:04;3.23;;;2.80;;
47844;SDS011;33605;48.822;8.796;2023-11-21T12:17:30;3.80;;;3.43;;
47844;SDS011;33605;48.822;8.796;2023-11-21T12:20:05;6.47;;;4.40;;
47844;SDS011;33605;48.822;8.796;2023-11-21T12:22:39;5.57;;;4.80;;
47844;SDS011;33605;48.822;8.796;2023-11-21T12:25:06;4.80;;;4.30;;
47844;SDS011;33605;48.822;8.796;2023-11-21T12:27:32;5.10;;;4.60;;
47844;SDS011;33605;48.822;8.796;2023-11-21T12:29:58;5.80;;;5.20;;
47844;SDS011;33605;48.822;8.796;2023-11-21T12:32:24;7.83;;;5.97;;
47844;SDS011;33605;48.822;8.796;2023-11-21T12:34:50;5.90;;;5.20;;
47844;SDS011;33605;48.822;8.796;2023-11-21T12:37:17;12.17;;;8.97;;
47844;SDS011;33605;48.822;8.796;2023-11-21T12:39:43;7.83;;;7.03;;
47844;SDS011;33605;48.822;8.796;2023-11-21T12:42:09;6.80;;;5.83;;
47844;SDS011;33605;48.822;8.796;2023-11-21T12:44:35;6.40;;;5.50;;
47844;SDS011;33605;48.822;8.796;2023-11-21T12:47:05;5.63;;;5.13;;
47844;SDS011;33605;48.822;8.796;2023-11-21T12:49:32;5.33;;;4.83;;
47844;SDS011;33605;48.822;8.796;2023-11-21T12:51:59;8.53;;;4.60;;
47844;SDS011;33605;48.822;8.796;2023-11-21T12:54:25;7.60;;;5.23;;
47844;SDS011;33605;48.822;8.796;2023-11-21T12:56:51;6.17;;;5.30;;
47844;SDS011;33605;48.822;8.796;2023-11-21T12:59:17;6.10;;;5.50;;
47844;SDS011;33605;48.822;8.796;2023-11-21T13:01:43;6.20;;;5.60;;
47844;SDS011;33605;48.822;8.796;2023-11-21T13:04:11;5.50;;;4.63;;
47844;SDS011;33605;48.822;8.796;2023-11-21T13:06:37;5.43;;;4.63;;
47844;SDS011;33605;48.822;8.796;2023-11-21T13:09:09;4.97;;;4.40;;
47844;SDS011;33605;48.822;8.796;2023-11-21T13:11:36;4.90;;;4.50;;
47844;SDS011;33605;48.822;8.796;2023-11-21T13:14:02;5.00;;;4.50;;
47844;SDS011;33605;48.822;8.796;2023-11-21T13:16:28;3.93;;;3.53;;
47844;SDS011;33605;48.822;8.796;2023-11-21T13:18:56;4.00;;;3.60;;
47844;SDS011;33605;48.822;8.796;2023-11-21T13:21:23;5.20;;;3.50;;
47844;SDS011;33605;48.822;8.796;2023-11-21T13:23:49;3.43;;;3.13;;
47844;SDS011;33605;48.822;8.796;2023-11-21T13:26:17;3.13;;;2.93;;
47844;SDS011;33605;48.822;8.796;2023-11-21T13:28:45;3.60;;;2.80;;
47844;SDS011;33605;48.822;8.796;2023-11-21T13:31:12;3.07;;;2.77;;
47844;SDS011;33605;48.822;8.796;2023-11-21T13:33:57;4.50;;;4.10;;
47844;SDS011;33605;48.822;8.796;2023-11-21T13:36:29;4.03;;;3.47;;
47844;SDS011;33605;48.822;8.796;2023-11-21T13:38:58;3.07;;;2.83;;
47844;SDS011;33605;48.822;8.796;2023-11-21T13:41:29;3.07;;;2.77;;
47844;SDS011;33605;48.822;8.796;2023-11-21T13:43:56;2.97;;;2.77;;
47844;SDS011;33605;48.822;8.796;2023-11-21T13:46:42;4.00;;;3.13;;
47844;SDS011;33605;48.822;8.796;2023-11-21T13:49:10;4.40;;;4.00;;
47844;SDS011;33605;48.822;8.796;2023-11-21T13:51:36;3.80;;;3.37;;
47844;SDS011;33605;48.822;8.796;2023-11-21T13:54:09;2.90;;;2.70;;
47844;SDS011;33605;48.822;8.796;2023-11-21T13:56:35;2.90;;;2.40;;
47844;SDS011;33605;48.822;8.796;2023-11-21T13:59:02;2.43;;;2.23;;
47844;SDS011;33605;48.822;8.796;2023-11-21T14:01:45;2.60;;;2.10;;
47844;SDS011;33605;48.822;8.796;2023-11-21T14:04:21;5.60;;;2.00;;
47844;SDS011;33605;48.822;8.796;2023-11-21T14:07:11;2.87;;;2.67;;
47844;SDS011;33605;48.822;8.796;2023-11-21T14:09:51;3.50;;;2.73;;
47844;SDS011;33605;48.822;8.796;2023-11-21T14:12:18;4.00;;;3.30;;
47844;SDS011;33605;48.822;8.796;2023-11-21T14:14:44;4.30;;;3.90;;
47844;SDS011;33605;48.822;8.796;2023-11-21T14:17:12;3.03;;;2.83;;
47844;SDS011;33605;48.822;8.796;2023-11-21T14:19:38;2.60;;;2.40;;
47844;SDS011;33605;48.822;8.796;2023-11-21T14:22:08;2.80;;;2.60;;
47844;SDS011;33605;48.822;8.796;2023-11-21T14:24:35;3.67;;;2.40;;
47844;SDS011;33605;48.822;8.796;2023-11-21T14:27:01;2.27;;;2.17;;
47844;SDS011;33605;48.822;8.796;2023-11-21T14:29:28;2.47;;;2.27;;
47844;SDS011;33605;48.822;8.796;2023-11-21T14:31:55;2.50;;;2.30;;
47844;SDS011;33605;48.822;8.796;2023-11-21T14:34:23;2.43;;;2.13;;
47844;SDS011;33605;48.822;8.796;2023-11-21T14:36:49;2.40;;;2.20;;
47844;SDS011;33605;48.822;8.796;2023-11-21T14:39:15;2.17;;;2.07;;
47844;SDS011;33605;48.822;8.796;2023-11-21T14:41:54;2.33;;;2.00;;
47844;SDS011;33605;48.822;8.796;2023-11-21T14:44:21;1.73;;;1.63;;
47844;SDS011;33605;48.822;8.796;2023-11-21T14:46:51;2.10;;;1.87;;
47844;SDS011;33605;48.822;8.796;2023-11-21T14:49:19;3.63;;;2.53;;
47844;SDS011;33605;48.822;8.796;2023-11-21T14:51:47;2.13;;;2.03;;
47844;SDS011;33605;48.822;8.796;2023-11-21T14:54:25;2.47;;;2.27;;
47844;SDS011;33605;48.822;8.796;2023-11-21T14:57:05;2.03;;;1.93;;
47844;SDS011;33605;48.822;8.796;2023-11-21T14:59:37;3.30;;;2.37;;